Bartlesville, OK

11:15 AM CDT on September 30, 2014 (GMT -0500)
Tulsa International | Change Station
CLOSE
Current Station
Airport
Location: Tulsa,
Elevation: 676 ft
Nearby Weather Stations
4.1 Earthquake: Harper, Kansas (1 hour ago) 4.1 Earthquake: Perry, Oklahoma (13 hours ago)  

Elev 676 ft 36.20 °N, 95.89 °W | Updated 22 minutes ago

Clear
Clear
79 °F
Feels Like 79 °F
N
12
Wind Variable Wind from SSE

Today
High -- | Low -- °F
--% Chance of Precip.
Yesterday
High -- | Low -- °F
Precip. -- in
7:18 AM 7:08 PM
Waxing Crescent, 38% visible
Pressure 29.89 in
Visibility 10.0 miles
Clouds Few 4600 ft
Few 6000 ft
Mostly Cloudy 7000 ft
Dew Point 61 °F
Humidity 54%
Rainfall 0.00 in
Snow Depth Not available.
UV 3 out of 12
Pollen 8.40 out of 12
Air Quality Not available.
Flu Activity Not available.
METAR KTUL 301553Z 16010KT 10SM FEW046 FEW060 BKN070 26/16 A2991 RMK AO2 SLP122 T02610161

More Conditions Fewer Conditions

Pressure 29.89 in
Visibility 10.0 miles
Clouds Few 4600 ft
Few 6000 ft
Mostly Cloudy 7000 ft
Dew Point 61 °F
Humidity 54%
Rainfall 0.00 in
Snow Depth Not available.
UV 3 out of 12
Pollen 8.40 out of 12
Air Quality Not available.
Flu Activity Not available.
METAR KTUL 301553Z 16010KT 10SM FEW046 FEW060 BKN070 26/16 A2991 RMK AO2 SLP122 T02610161

More Conditions Fewer Conditions

10-Day Weather Forecast

Almanac

Astronomy

Sep. 30, 2014 Rise Set
Actual Time 7:18 AM CDT 7:08 PM CDT
Civil Twilight 6:52 AM CDT 7:34 PM CDT
Nautical Twilight 6:22 AM CDT 8:04 PM CDT
Astronomical Twilight 5:52 AM CDT 8:34 PM CDT
Moon 1:20 PM CDT 11:47 PM CDT
Length of Visible Light 12h 41m
Length of Day
11h 50m
Tomorrow will be 2m 19s shorter.
Waxing Crescent, 38% of the Moon is Illuminated
Today
Waxing Crescent
Oct 1
First Quarter
Oct 8
Full
Oct 15
Last Quarter
Oct 23
New

Today's Extremes

State Highs State Lows

Community

WunderPhotos

Upload Photos

1,757,675 photos uploaded!

Nearby

Snow Depth

Station Depth Elevation
No new snow has been reported.

Earthquake Activity

City Distance Mag. Time & Date
Harper, Kansas 113 miles 4.1 9:55 AM CDT
2014-09-30
Harper, Kansas 111 miles 3.3 7:30 AM CDT
2014-09-30
Perry, Oklahoma 93 miles 3.5 1:06 AM CDT
2014-09-30
Perry, Oklahoma 93 miles 3.3 12:58 AM CDT
2014-09-30
Minimum magnitude displayed is 2.5.

Coastal Water Temperatures

Place Temperature
No Stations Reporting

Nearby Weather Stations